sensor_id;sensor_type;location;lat;lon;timestamp;temperature;humidity
12655;DHT22;6392;44.644;11.448;2023-05-17T00:00:59;14.90;99.90
12655;DHT22;6392;44.644;11.448;2023-05-17T00:03:26;14.90;99.90
12655;DHT22;6392;44.644;11.448;2023-05-17T00:05:52;14.90;99.90
12655;DHT22;6392;44.644;11.448;2023-05-17T00:08:19;14.90;99.90
12655;DHT22;6392;44.644;11.448;2023-05-17T00:10:46;14.90;99.90
12655;DHT22;6392;44.644;11.448;2023-05-17T00:13:13;14.90;99.90
12655;DHT22;6392;44.644;11.448;2023-05-17T00:15:39;14.90;99.90
12655;DHT22;6392;44.644;11.448;2023-05-17T00:18:08;14.90;99.90
12655;DHT22;6392;44.644;11.448;2023-05-17T00:20:35;14.90;99.90
12655;DHT22;6392;44.644;11.448;2023-05-17T00:23:01;14.90;99.90
12655;DHT22;6392;44.644;11.448;2023-05-17T00:25:28;14.90;99.90
12655;DHT22;6392;44.644;11.448;2023-05-17T00:27:55;14.90;99.90
12655;DHT22;6392;44.644;11.448;2023-05-17T00:30:22;14.90;99.90
12655;DHT22;6392;44.644;11.448;2023-05-17T00:32:48;14.90;99.90
12655;DHT22;6392;44.644;11.448;2023-05-17T00:35:17;14.90;99.90
12655;DHT22;6392;44.644;11.448;2023-05-17T00:37:43;14.90;99.90
12655;DHT22;6392;44.644;11.448;2023-05-17T00:40:12;14.90;99.90
12655;DHT22;6392;44.644;11.448;2023-05-17T00:42:39;14.90;99.90
12655;DHT22;6392;44.644;11.448;2023-05-17T00:45:06;14.90;99.90
12655;DHT22;6392;44.644;11.448;2023-05-17T00:47:33;14.90;99.90
12655;DHT22;6392;44.644;11.448;2023-05-17T00:50:00;14.90;99.90
12655;DHT22;6392;44.644;11.448;2023-05-17T00:52:28;14.90;99.90
12655;DHT22;6392;44.644;11.448;2023-05-17T00:54:55;14.90;99.90
12655;DHT22;6392;44.644;11.448;2023-05-17T00:57:22;14.90;99.90
12655;DHT22;6392;44.644;11.448;2023-05-17T00:59:49;14.90;99.90
12655;DHT22;6392;44.644;11.448;2023-05-17T01:02:16;14.90;99.90
12655;DHT22;6392;44.644;11.448;2023-05-17T01:04:57;14.90;99.90
12655;DHT22;6392;44.644;11.448;2023-05-17T01:07:24;14.90;99.90
12655;DHT22;6392;44.644;11.448;2023-05-17T01:09:52;14.90;99.90
12655;DHT22;6392;44.644;11.448;2023-05-17T01:12:22;14.90;99.90
12655;DHT22;6392;44.644;11.448;2023-05-17T01:14:53;14.90;99.90
12655;DHT22;6392;44.644;11.448;2023-05-17T01:17:23;14.80;99.90
12655;DHT22;6392;44.644;11.448;2023-05-17T01:19:56;14.90;99.90
12655;DHT22;6392;44.644;11.448;2023-05-17T01:22:38;14.90;99.90
12655;DHT22;6392;44.644;11.448;2023-05-17T01:25:18;14.90;99.90
12655;DHT22;6392;44.644;11.448;2023-05-17T01:27:50;14.90;99.90
12655;DHT22;6392;44.644;11.448;2023-05-17T01:30:19;14.90;99.90
12655;DHT22;6392;44.644;11.448;2023-05-17T01:32:48;14.90;99.90
12655;DHT22;6392;44.644;11.448;2023-05-17T01:35:15;14.90;99.90
12655;DHT22;6392;44.644;11.448;2023-05-17T01:37:42;14.90;99.90
12655;DHT22;6392;44.644;11.448;2023-05-17T01:40:09;14.90;99.90
12655;DHT22;6392;44.644;11.448;2023-05-17T01:42:36;14.90;99.90
12655;DHT22;6392;44.644;11.448;2023-05-17T01:45:07;14.90;99.90
12655;DHT22;6392;44.644;11.448;2023-05-17T01:47:38;14.90;99.90
12655;DHT22;6392;44.644;11.448;2023-05-17T01:50:07;14.90;99.90
12655;DHT22;6392;44.644;11.448;2023-05-17T01:52:36;14.90;99.90
12655;DHT22;6392;44.644;11.448;2023-05-17T01:55:04;14.90;99.90
12655;DHT22;6392;44.644;11.448;2023-05-17T01:57:32;14.90;99.90
12655;DHT22;6392;44.644;11.448;2023-05-17T02:00:01;14.90;99.90
12655;DHT22;6392;44.644;11.448;2023-05-17T02:02:30;14.90;99.90
12655;DHT22;6392;44.644;11.448;2023-05-17T02:04:57;14.90;99.90
12655;DHT22;6392;44.644;11.448;2023-05-17T02:07:23;14.90;99.90
12655;DHT22;6392;44.644;11.448;2023-05-17T02:09:50;14.90;99.90
12655;DHT22;6392;44.644;11.448;2023-05-17T02:12:17;14.90;99.90
12655;DHT22;6392;44.644;11.448;2023-05-17T02:14:44;15.00;99.90
12655;DHT22;6392;44.644;11.448;2023-05-17T02:17:10;15.00;99.90
12655;DHT22;6392;44.644;11.448;2023-05-17T02:19:39;15.00;99.90
12655;DHT22;6392;44.644;11.448;2023-05-17T02:22:05;15.00;99.90
12655;DHT22;6392;44.644;11.448;2023-05-17T02:24:32;14.90;99.90
12655;DHT22;6392;44.644;11.448;2023-05-17T02:26:59;15.00;99.90
12655;DHT22;6392;44.644;11.448;2023-05-17T02:29:26;14.90;99.90
12655;DHT22;6392;44.644;11.448;2023-05-17T02:31:52;14.90;99.90
12655;DHT22;6392;44.644;11.448;2023-05-17T02:34:19;14.90;99.90
12655;DHT22;6392;44.644;11.448;2023-05-17T02:36:47;14.90;99.90
12655;DHT22;6392;44.644;11.448;2023-05-17T02:39:14;14.90;99.90
12655;DHT22;6392;44.644;11.448;2023-05-17T02:41:41;14.90;99.90
12655;DHT22;6392;44.644;11.448;2023-05-17T02:44:08;14.90;99.90
12655;DHT22;6392;44.644;11.448;2023-05-17T02:46:35;14.90;99.90
12655;DHT22;6392;44.644;11.448;2023-05-17T02:49:01;14.90;99.90
12655;DHT22;6392;44.644;11.448;2023-05-17T02:51:28;14.90;99.90
12655;DHT22;6392;44.644;11.448;2023-05-17T02:53:56;14.90;99.90
12655;DHT22;6392;44.644;11.448;2023-05-17T02:56:23;14.90;99.90
12655;DHT22;6392;44.644;11.448;2023-05-17T02:58:50;14.90;99.90
12655;DHT22;6392;44.644;11.448;2023-05-17T03:01:16;14.90;99.90
12655;DHT22;6392;44.644;11.448;2023-05-17T03:03:43;14.90;99.90
12655;DHT22;6392;44.644;11.448;2023-05-17T03:06:10;14.90;99.90
12655;DHT22;6392;44.644;11.448;2023-05-17T03:08:37;14.90;99.90
12655;DHT22;6392;44.644;11.448;2023-05-17T03:11:05;14.90;99.90
12655;DHT22;6392;44.644;11.448;2023-05-17T03:13:32;14.90;99.90
12655;DHT22;6392;44.644;11.448;2023-05-17T03:15:58;14.90;99.90
12655;DHT22;6392;44.644;11.448;2023-05-17T03:18:25;14.90;99.90
12655;DHT22;6392;44.644;11.448;2023-05-17T03:20:52;14.90;99.90
12655;DHT22;6392;44.644;11.448;2023-05-17T03:23:19;14.90;99.90
12655;DHT22;6392;44.644;11.448;2023-05-17T03:25:45;14.90;99.90
12655;DHT22;6392;44.644;11.448;2023-05-17T03:28:13;14.90;99.90
12655;DHT22;6392;44.644;11.448;2023-05-17T03:30:40;14.90;99.90
12655;DHT22;6392;44.644;11.448;2023-05-17T03:33:07;14.90;99.90
12655;DHT22;6392;44.644;11.448;2023-05-17T03:35:34;14.90;99.90
12655;DHT22;6392;44.644;11.448;2023-05-17T03:38:00;14.90;99.90
12655;DHT22;6392;44.644;11.448;2023-05-17T03:40:27;14.90;99.90
12655;DHT22;6392;44.644;11.448;2023-05-17T03:42:54;14.90;99.90
12655;DHT22;6392;44.644;11.448;2023-05-17T03:45:23;14.90;99.90
12655;DHT22;6392;44.644;11.448;2023-05-17T03:47:50;14.90;99.90
12655;DHT22;6392;44.644;11.448;2023-05-17T03:50:16;14.90;99.90
12655;DHT22;6392;44.644;11.448;2023-05-17T03:52:43;14.80;99.90
12655;DHT22;6392;44.644;11.448;2023-05-17T03:55:10;14.80;99.90
12655;DHT22;6392;44.644;11.448;2023-05-17T03:57:37;14.80;99.90
12655;DHT22;6392;44.644;11.448;2023-05-17T04:00:04;14.80;99.90
12655;DHT22;6392;44.644;11.448;2023-05-17T04:02:36;14.80;99.90
12655;DHT22;6392;44.644;11.448;2023-05-17T04:05:03;14.80;99.90
12655;DHT22;6392;44.644;11.448;2023-05-17T04:07:30;14.80;99.90
12655;DHT22;6392;44.644;11.448;2023-05-17T04:09:56;14.80;99.90
12655;DHT22;6392;44.644;11.448;2023-05-17T04:12:24;14.80;99.90
12655;DHT22;6392;44.644;11.448;2023-05-17T04:14:51;14.80;99.90
12655;DHT22;6392;44.644;11.448;2023-05-17T04:17:17;14.80;99.90
12655;DHT22;6392;44.644;11.448;2023-05-17T04:19:45;14.80;99.90
12655;DHT22;6392;44.644;11.448;2023-05-17T04:22:12;14.80;99.90
12655;DHT22;6392;44.644;11.448;2023-05-17T04:24:39;14.80;99.90
12655;DHT22;6392;44.644;11.448;2023-05-17T04:27:06;14.80;99.90
12655;DHT22;6392;44.644;11.448;2023-05-17T04:29:32;14.80;99.90
12655;DHT22;6392;44.644;11.448;2023-05-17T04:31:59;14.80;99.90
12655;DHT22;6392;44.644;11.448;2023-05-17T04:34:26;14.80;99.90
12655;DHT22;6392;44.644;11.448;2023-05-17T04:36:54;14.80;99.90
12655;DHT22;6392;44.644;11.448;2023-05-17T04:39:21;14.80;99.90
12655;DHT22;6392;44.644;11.448;2023-05-17T04:41:48;14.70;99.90
12655;DHT22;6392;44.644;11.448;2023-05-17T04:44:14;14.70;99.90
12655;DHT22;6392;44.644;11.448;2023-05-17T04:46:42;14.70;99.90
12655;DHT22;6392;44.644;11.448;2023-05-17T04:49:08;14.70;99.90
12655;DHT22;6392;44.644;11.448;2023-05-17T04:51:35;14.70;99.90
12655;DHT22;6392;44.644;11.448;2023-05-17T04:54:04;14.70;99.90
12655;DHT22;6392;44.644;11.448;2023-05-17T04:56:33;14.70;99.90
12655;DHT22;6392;44.644;11.448;2023-05-17T04:59:00;14.70;99.90
12655;DHT22;6392;44.644;11.448;2023-05-17T05:01:27;14.70;99.90
12655;DHT22;6392;44.644;11.448;2023-05-17T05:03:55;14.70;99.90
12655;DHT22;6392;44.644;11.448;2023-05-17T05:06:22;14.70;99.90
12655;DHT22;6392;44.644;11.448;2023-05-17T05:08:48;14.70;99.90
12655;DHT22;6392;44.644;11.448;2023-05-17T05:11:16;14.70;99.90
12655;DHT22;6392;44.644;11.448;2023-05-17T05:13:43;14.70;99.90
12655;DHT22;6392;44.644;11.448;2023-05-17T05:16:10;14.70;99.90
12655;DHT22;6392;44.644;11.448;2023-05-17T05:18:37;14.70;99.90
12655;DHT22;6392;44.644;11.448;2023-05-17T05:21:04;14.70;99.90
12655;DHT22;6392;44.644;11.448;2023-05-17T05:23:30;14.70;99.90
12655;DHT22;6392;44.644;11.448;2023-05-17T05:25:57;14.70;99.90
12655;DHT22;6392;44.644;11.448;2023-05-17T05:28:25;14.70;99.90
12655;DHT22;6392;44.644;11.448;2023-05-17T05:30:55;14.70;99.90
12655;DHT22;6392;44.644;11.448;2023-05-17T05:33:22;14.60;99.90
12655;DHT22;6392;44.644;11.448;2023-05-17T05:35:49;14.60;99.90
12655;DHT22;6392;44.644;11.448;2023-05-17T05:38:15;14.60;99.90
12655;DHT22;6392;44.644;11.448;2023-05-17T05:40:44;14.70;99.90
12655;DHT22;6392;44.644;11.448;2023-05-17T05:43:11;14.70;99.90
12655;DHT22;6392;44.644;11.448;2023-05-17T05:45:39;14.70;99.90
12655;DHT22;6392;44.644;11.448;2023-05-17T05:48:10;14.60;99.90
12655;DHT22;6392;44.644;11.448;2023-05-17T05:50:37;14.60;99.90
12655;DHT22;6392;44.644;11.448;2023-05-17T05:53:03;14.70;99.90
12655;DHT22;6392;44.644;11.448;2023-05-17T05:55:30;14.70;99.90
12655;DHT22;6392;44.644;11.448;2023-05-17T05:57:57;14.70;99.90
12655;DHT22;6392;44.644;11.448;2023-05-17T06:00:24;14.80;99.90
12655;DHT22;6392;44.644;11.448;2023-05-17T06:02:52;14.80;99.90
12655;DHT22;6392;44.644;11.448;2023-05-17T06:05:21;14.80;99.90
12655;DHT22;6392;44.644;11.448;2023-05-17T06:07:48;14.80;99.90
12655;DHT22;6392;44.644;11.448;2023-05-17T06:10:15;14.90;99.90
12655;DHT22;6392;44.644;11.448;2023-05-17T06:12:42;15.00;99.90
12655;DHT22;6392;44.644;11.448;2023-05-17T06:15:09;15.00;99.90
12655;DHT22;6392;44.644;11.448;2023-05-17T06:17:36;15.00;99.90
12655;DHT22;6392;44.644;11.448;2023-05-17T06:20:04;15.00;99.90
12655;DHT22;6392;44.644;11.448;2023-05-17T06:22:31;15.10;99.90
12655;DHT22;6392;44.644;11.448;2023-05-17T06:24:58;15.10;99.90
12655;DHT22;6392;44.644;11.448;2023-05-17T06:27:25;15.10;99.90
12655;DHT22;6392;44.644;11.448;2023-05-17T06:29:52;15.10;99.90
12655;DHT22;6392;44.644;11.448;2023-05-17T06:32:21;15.10;99.90
12655;DHT22;6392;44.644;11.448;2023-05-17T06:34:48;14.40;99.90
12655;DHT22;6392;44.644;11.448;2023-05-17T06:37:16;15.10;99.90
12655;DHT22;6392;44.644;11.448;2023-05-17T06:39:43;15.20;99.90
12655;DHT22;6392;44.644;11.448;2023-05-17T06:42:10;15.20;99.90
12655;DHT22;6392;44.644;11.448;2023-05-17T06:44:36;15.20;99.90
12655;DHT22;6392;44.644;11.448;2023-05-17T06:47:03;15.20;99.90
12655;DHT22;6392;44.644;11.448;2023-05-17T06:49:30;15.20;99.90
12655;DHT22;6392;44.644;11.448;2023-05-17T06:51:57;15.30;99.90
12655;DHT22;6392;44.644;11.448;2023-05-17T06:54:29;15.20;99.90
12655;DHT22;6392;44.644;11.448;2023-05-17T06:56:58;15.30;99.90
12655;DHT22;6392;44.644;11.448;2023-05-17T06:59:25;15.30;99.90
12655;DHT22;6392;44.644;11.448;2023-05-17T07:01:52;15.40;99.90
12655;DHT22;6392;44.644;11.448;2023-05-17T07:04:19;15.40;99.90
12655;DHT22;6392;44.644;11.448;2023-05-17T07:06:46;15.40;99.90
12655;DHT22;6392;44.644;11.448;2023-05-17T07:09:12;15.40;99.90
12655;DHT22;6392;44.644;11.448;2023-05-17T07:11:40;15.50;99.90
12655;DHT22;6392;44.644;11.448;2023-05-17T07:14:07;15.50;99.90
12655;DHT22;6392;44.644;11.448;2023-05-17T07:16:34;15.50;99.90
12655;DHT22;6392;44.644;11.448;2023-05-17T07:19:01;15.60;99.90
12655;DHT22;6392;44.644;11.448;2023-05-17T07:21:28;15.60;99.90
12655;DHT22;6392;44.644;11.448;2023-05-17T07:23:55;15.60;99.90
12655;DHT22;6392;44.644;11.448;2023-05-17T07:26:22;15.60;99.90
12655;DHT22;6392;44.644;11.448;2023-05-17T07:28:50;15.60;99.90
12655;DHT22;6392;44.644;11.448;2023-05-17T07:31:17;15.60;99.90
12655;DHT22;6392;44.644;11.448;2023-05-17T07:33:43;15.60;99.90
12655;DHT22;6392;44.644;11.448;2023-05-17T07:36:10;15.60;99.90
12655;DHT22;6392;44.644;11.448;2023-05-17T07:38:37;15.60;99.90
12655;DHT22;6392;44.644;11.448;2023-05-17T07:41:04;15.60;99.90
12655;DHT22;6392;44.644;11.448;2023-05-17T07:43:34;15.60;99.90
12655;DHT22;6392;44.644;11.448;2023-05-17T07:46:02;15.60;99.90
12655;DHT22;6392;44.644;11.448;2023-05-17T07:48:29;15.70;99.90
12655;DHT22;6392;44.644;11.448;2023-05-17T07:50:56;15.70;99.90
12655;DHT22;6392;44.644;11.448;2023-05-17T07:53:22;15.70;99.90
12655;DHT22;6392;44.644;11.448;2023-05-17T07:55:49;15.70;99.90
12655;DHT22;6392;44.644;11.448;2023-05-17T07:58:16;15.70;99.90
12655;DHT22;6392;44.644;11.448;2023-05-17T08:00:43;15.80;99.90
12655;DHT22;6392;44.644;11.448;2023-05-17T08:03:11;15.80;99.90
12655;DHT22;6392;44.644;11.448;2023-05-17T08:05:38;15.80;99.90
12655;DHT22;6392;44.644;11.448;2023-05-17T08:08:05;15.80;99.90
12655;DHT22;6392;44.644;11.448;2023-05-17T08:10:32;15.80;99.90
12655;DHT22;6392;44.644;11.448;2023-05-17T08:12:59;15.80;99.90
12655;DHT22;6392;44.644;11.448;2023-05-17T08:15:25;15.90;99.90
12655;DHT22;6392;44.644;11.448;2023-05-17T08:17:52;15.90;99.90
12655;DHT22;6392;44.644;11.448;2023-05-17T08:20:20;15.90;99.90
12655;DHT22;6392;44.644;11.448;2023-05-17T08:22:47;15.90;99.90
12655;DHT22;6392;44.644;11.448;2023-05-17T08:25:14;16.00;99.90
12655;DHT22;6392;44.644;11.448;2023-05-17T08:27:41;16.00;99.90
12655;DHT22;6392;44.644;11.448;2023-05-17T08:30:08;16.00;99.90
12655;DHT22;6392;44.644;11.448;2023-05-17T08:32:34;16.00;99.90
12655;DHT22;6392;44.644;11.448;2023-05-17T08:35:01;16.10;99.90
12655;DHT22;6392;44.644;11.448;2023-05-17T08:37:29;16.10;99.90
12655;DHT22;6392;44.644;11.448;2023-05-17T08:39:57;16.10;99.90
12655;DHT22;6392;44.644;11.448;2023-05-17T08:42:23;16.20;99.90
12655;DHT22;6392;44.644;11.448;2023-05-17T08:44:50;16.10;99.90
12655;DHT22;6392;44.644;11.448;2023-05-17T08:47:18;16.10;99.90
12655;DHT22;6392;44.644;11.448;2023-05-17T08:49:54;16.10;99.90
12655;DHT22;6392;44.644;11.448;2023-05-17T08:52:21;16.10;99.90
12655;DHT22;6392;44.644;11.448;2023-05-17T08:54:50;16.10;99.90
12655;DHT22;6392;44.644;11.448;2023-05-17T08:57:17;16.10;99.90
12655;DHT22;6392;44.644;11.448;2023-05-17T08:59:44;16.10;99.90
12655;DHT22;6392;44.644;11.448;2023-05-17T09:02:12;16.20;99.90
12655;DHT22;6392;44.644;11.448;2023-05-17T09:04:39;16.20;99.90
12655;DHT22;6392;44.644;11.448;2023-05-17T09:07:06;16.20;99.90
12655;DHT22;6392;44.644;11.448;2023-05-17T09:09:33;16.30;99.90
12655;DHT22;6392;44.644;11.448;2023-05-17T09:12:01;16.30;99.90
12655;DHT22;6392;44.644;11.448;2023-05-17T09:14:31;16.30;99.90
12655;DHT22;6392;44.644;11.448;2023-05-17T09:16:59;16.40;99.90
12655;DHT22;6392;44.644;11.448;2023-05-17T09:19:26;16.40;99.90
12655;DHT22;6392;44.644;11.448;2023-05-17T09:21:53;16.40;99.90
12655;DHT22;6392;44.644;11.448;2023-05-17T09:24:25;16.40;99.90
12655;DHT22;6392;44.644;11.448;2023-05-17T09:26:52;16.40;99.90
12655;DHT22;6392;44.644;11.448;2023-05-17T09:29:20;16.50;99.90
12655;DHT22;6392;44.644;11.448;2023-05-17T09:31:47;16.40;99.90
12655;DHT22;6392;44.644;11.448;2023-05-17T09:34:16;16.40;99.90
12655;DHT22;6392;44.644;11.448;2023-05-17T09:36:44;16.40;99.90
12655;DHT22;6392;44.644;11.448;2023-05-17T09:39:11;16.40;99.90
12655;DHT22;6392;44.644;11.448;2023-05-17T09:41:39;16.40;99.90
12655;DHT22;6392;44.644;11.448;2023-05-17T09:44:07;16.40;99.90
12655;DHT22;6392;44.644;11.448;2023-05-17T09:46:36;16.40;99.90
12655;DHT22;6392;44.644;11.448;2023-05-17T09:49:06;16.40;99.90
12655;DHT22;6392;44.644;11.448;2023-05-17T09:51:33;16.40;99.90
12655;DHT22;6392;44.644;11.448;2023-05-17T09:54:00;16.50;99.90
12655;DHT22;6392;44.644;11.448;2023-05-17T09:56:27;16.50;99.90
12655;DHT22;6392;44.644;11.448;2023-05-17T09:58:55;16.50;99.90
12655;DHT22;6392;44.644;11.448;2023-05-17T10:01:22;16.50;99.90
12655;DHT22;6392;44.644;11.448;2023-05-17T10:03:52;16.50;99.90
12655;DHT22;6392;44.644;11.448;2023-05-17T10:06:21;16.50;99.90
12655;DHT22;6392;44.644;11.448;2023-05-17T10:08:49;16.50;99.90
12655;DHT22;6392;44.644;11.448;2023-05-17T10:11:17;16.50;99.90
12655;DHT22;6392;44.644;11.448;2023-05-17T10:13:48;16.50;99.90
12655;DHT22;6392;44.644;11.448;2023-05-17T10:16:19;16.50;99.90
12655;DHT22;6392;44.644;11.448;2023-05-17T10:18:46;16.50;99.90
12655;DHT22;6392;44.644;11.448;2023-05-17T10:21:16;16.60;99.90
12655;DHT22;6392;44.644;11.448;2023-05-17T10:23:44;16.60;99.90
12655;DHT22;6392;44.644;11.448;2023-05-17T10:26:12;16.60;99.90
12655;DHT22;6392;44.644;11.448;2023-05-17T10:28:40;16.60;99.90
12655;DHT22;6392;44.644;11.448;2023-05-17T10:31:07;16.70;99.90
12655;DHT22;6392;44.644;11.448;2023-05-17T10:33:34;16.70;99.90
12655;DHT22;6392;44.644;11.448;2023-05-17T10:36:02;16.60;99.90
12655;DHT22;6392;44.644;11.448;2023-05-17T10:38:32;16.60;99.90
12655;DHT22;6392;44.644;11.448;2023-05-17T10:40:58;16.60;99.90
12655;DHT22;6392;44.644;11.448;2023-05-17T10:43:27;16.70;99.90
12655;DHT22;6392;44.644;11.448;2023-05-17T10:45:54;16.70;99.90
12655;DHT22;6392;44.644;11.448;2023-05-17T10:48:21;16.70;99.90
12655;DHT22;6392;44.644;11.448;2023-05-17T10:50:50;16.80;99.90
12655;DHT22;6392;44.644;11.448;2023-05-17T10:53:18;16.80;99.90
12655;DHT22;6392;44.644;11.448;2023-05-17T10:55:46;16.80;99.90
12655;DHT22;6392;44.644;11.448;2023-05-17T10:58:14;16.80;99.90
12655;DHT22;6392;44.644;11.448;2023-05-17T11:00:43;16.90;99.90
12655;DHT22;6392;44.644;11.448;2023-05-17T11:03:11;16.80;99.90
12655;DHT22;6392;44.644;11.448;2023-05-17T11:05:40;16.90;99.90
12655;DHT22;6392;44.644;11.448;2023-05-17T11:11:09;16.90;99.90
12655;DHT22;6392;44.644;11.448;2023-05-17T11:13:43;16.90;99.90
12655;DHT22;6392;44.644;11.448;2023-05-17T11:16:13;17.00;99.90
12655;DHT22;6392;44.644;11.448;2023-05-17T11:18:47;17.00;99.90
12655;DHT22;6392;44.644;11.448;2023-05-17T11:21:14;17.10;99.90
12655;DHT22;6392;44.644;11.448;2023-05-17T11:23:41;17.10;99.90
12655;DHT22;6392;44.644;11.448;2023-05-17T11:26:16;17.10;99.90
12655;DHT22;6392;44.644;11.448;2023-05-17T11:28:45;17.10;99.90
12655;DHT22;6392;44.644;11.448;2023-05-17T11:31:12;17.10;99.90
12655;DHT22;6392;44.644;11.448;2023-05-17T11:33:41;17.10;99.90
12655;DHT22;6392;44.644;11.448;2023-05-17T11:36:13;17.00;99.90
12655;DHT22;6392;44.644;11.448;2023-05-17T11:38:42;17.00;99.90
12655;DHT22;6392;44.644;11.448;2023-05-17T11:41:17;17.00;99.90
12655;DHT22;6392;44.644;11.448;2023-05-17T11:43:44;16.90;99.90
12655;DHT22;6392;44.644;11.448;2023-05-17T11:46:17;16.80;99.90
12655;DHT22;6392;44.644;11.448;2023-05-17T11:48:44;16.80;99.90
12655;DHT22;6392;44.644;11.448;2023-05-17T11:51:12;16.80;99.90
12655;DHT22;6392;44.644;11.448;2023-05-17T11:53:39;16.80;99.90
12655;DHT22;6392;44.644;11.448;2023-05-17T11:56:06;16.80;99.90
12655;DHT22;6392;44.644;11.448;2023-05-17T11:58:34;16.90;99.90
12655;DHT22;6392;44.644;11.448;2023-05-17T12:01:01;16.80;99.90
12655;DHT22;6392;44.644;11.448;2023-05-17T12:03:29;16.90;99.90
12655;DHT22;6392;44.644;11.448;2023-05-17T12:06:03;16.90;99.90
12655;DHT22;6392;44.644;11.448;2023-05-17T12:08:30;16.90;99.90
12655;DHT22;6392;44.644;11.448;2023-05-17T12:10:58;16.80;99.90
12655;DHT22;6392;44.644;11.448;2023-05-17T12:13:26;16.80;99.90
12655;DHT22;6392;44.644;11.448;2023-05-17T12:15:55;16.80;99.90
12655;DHT22;6392;44.644;11.448;2023-05-17T12:18:35;16.80;99.90
12655;DHT22;6392;44.644;11.448;2023-05-17T12:21:02;16.90;99.90
12655;DHT22;6392;44.644;11.448;2023-05-17T12:23:34;16.90;99.90
12655;DHT22;6392;44.644;11.448;2023-05-17T12:26:04;16.90;99.90
12655;DHT22;6392;44.644;11.448;2023-05-17T12:28:32;16.90;99.90
12655;DHT22;6392;44.644;11.448;2023-05-17T12:31:02;16.90;99.90
12655;DHT22;6392;44.644;11.448;2023-05-17T12:33:30;17.00;99.90
12655;DHT22;6392;44.644;11.448;2023-05-17T12:35:57;16.90;99.90
12655;DHT22;6392;44.644;11.448;2023-05-17T12:38:24;16.90;99.90
12655;DHT22;6392;44.644;11.448;2023-05-17T12:40:52;17.00;99.90
12655;DHT22;6392;44.644;11.448;2023-05-17T12:43:21;17.00;99.90
12655;DHT22;6392;44.644;11.448;2023-05-17T12:45:48;17.10;99.90
12655;DHT22;6392;44.644;11.448;2023-05-17T12:48:17;17.10;99.90
12655;DHT22;6392;44.644;11.448;2023-05-17T12:50:44;17.10;99.90
12655;DHT22;6392;44.644;11.448;2023-05-17T12:53:13;17.20;99.90
12655;DHT22;6392;44.644;11.448;2023-05-17T12:55:40;17.20;99.90
12655;DHT22;6392;44.644;11.448;2023-05-17T12:58:07;17.30;99.90
12655;DHT22;6392;44.644;11.448;2023-05-17T13:00:34;17.30;99.90
12655;DHT22;6392;44.644;11.448;2023-05-17T13:03:00;17.40;99.90
12655;DHT22;6392;44.644;11.448;2023-05-17T13:05:29;17.40;99.90
12655;DHT22;6392;44.644;11.448;2023-05-17T13:07:56;17.50;99.90
12655;DHT22;6392;44.644;11.448;2023-05-17T13:10:23;17.50;99.90
12655;DHT22;6392;44.644;11.448;2023-05-17T13:12:53;17.60;99.90
12655;DHT22;6392;44.644;11.448;2023-05-17T13:15:25;17.60;99.90
12655;DHT22;6392;44.644;11.448;2023-05-17T13:17:51;17.60;99.90
12655;DHT22;6392;44.644;11.448;2023-05-17T13:20:18;17.70;99.90
12655;DHT22;6392;44.644;11.448;2023-05-17T13:22:47;17.70;99.90
12655;DHT22;6392;44.644;11.448;2023-05-17T13:25:14;17.70;99.90
12655;DHT22;6392;44.644;11.448;2023-05-17T13:27:41;17.70;99.90
12655;DHT22;6392;44.644;11.448;2023-05-17T13:30:11;17.70;99.90
12655;DHT22;6392;44.644;11.448;2023-05-17T13:32:38;17.70;99.90
12655;DHT22;6392;44.644;11.448;2023-05-17T13:35:07;17.70;99.90
12655;DHT22;6392;44.644;11.448;2023-05-17T13:37:34;17.80;99.90
12655;DHT22;6392;44.644;11.448;2023-05-17T13:40:03;17.80;99.90
12655;DHT22;6392;44.644;11.448;2023-05-17T13:42:29;17.90;99.90
12655;DHT22;6392;44.644;11.448;2023-05-17T13:44:57;18.00;99.90
12655;DHT22;6392;44.644;11.448;2023-05-17T13:47:26;18.10;99.90
12655;DHT22;6392;44.644;11.448;2023-05-17T13:49:54;18.20;99.90
12655;DHT22;6392;44.644;11.448;2023-05-17T13:52:21;18.30;99.90
12655;DHT22;6392;44.644;11.448;2023-05-17T13:54:49;18.40;99.90
12655;DHT22;6392;44.644;11.448;2023-05-17T13:57:17;18.50;99.90
12655;DHT22;6392;44.644;11.448;2023-05-17T13:59:44;18.50;99.90
12655;DHT22;6392;44.644;11.448;2023-05-17T14:02:11;18.50;99.90
12655;DHT22;6392;44.644;11.448;2023-05-17T14:04:38;18.60;99.90
12655;DHT22;6392;44.644;11.448;2023-05-17T14:07:05;18.60;99.90
12655;DHT22;6392;44.644;11.448;2023-05-17T14:09:32;18.60;99.90
12655;DHT22;6392;44.644;11.448;2023-05-17T14:12:01;18.60;99.90
12655;DHT22;6392;44.644;11.448;2023-05-17T14:14:30;18.60;99.90
12655;DHT22;6392;44.644;11.448;2023-05-17T14:16:56;18.60;99.90
12655;DHT22;6392;44.644;11.448;2023-05-17T14:19:23;18.60;99.90
12655;DHT22;6392;44.644;11.448;2023-05-17T14:21:50;18.50;99.90
12655;DHT22;6392;44.644;11.448;2023-05-17T14:24:17;18.50;99.90
12655;DHT22;6392;44.644;11.448;2023-05-17T14:26:44;18.50;99.90
12655;DHT22;6392;44.644;11.448;2023-05-17T14:29:11;18.50;99.90
12655;DHT22;6392;44.644;11.448;2023-05-17T14:31:39;18.40;99.90
12655;DHT22;6392;44.644;11.448;2023-05-17T14:34:06;18.40;99.90
12655;DHT22;6392;44.644;11.448;2023-05-17T14:36:32;18.40;99.90
12655;DHT22;6392;44.644;11.448;2023-05-17T14:39:00;18.40;99.90
12655;DHT22;6392;44.644;11.448;2023-05-17T14:41:28;18.40;99.90
12655;DHT22;6392;44.644;11.448;2023-05-17T14:43:55;18.50;99.90
12655;DHT22;6392;44.644;11.448;2023-05-17T14:46:22;18.50;99.90
12655;DHT22;6392;44.644;11.448;2023-05-17T14:48:50;18.50;99.90
12655;DHT22;6392;44.644;11.448;2023-05-17T14:51:17;18.40;99.90
12655;DHT22;6392;44.644;11.448;2023-05-17T14:53:44;18.40;99.90
12655;DHT22;6392;44.644;11.448;2023-05-17T14:56:11;18.40;99.90
12655;DHT22;6392;44.644;11.448;2023-05-17T14:58:39;18.40;99.90
12655;DHT22;6392;44.644;11.448;2023-05-17T15:01:06;18.40;99.90
12655;DHT22;6392;44.644;11.448;2023-05-17T15:03:33;18.40;99.90
12655;DHT22;6392;44.644;11.448;2023-05-17T15:06:02;18.40;99.90
12655;DHT22;6392;44.644;11.448;2023-05-17T15:08:30;18.40;99.90
12655;DHT22;6392;44.644;11.448;2023-05-17T15:10:57;18.40;99.90
12655;DHT22;6392;44.644;11.448;2023-05-17T15:13:24;18.40;99.90
12655;DHT22;6392;44.644;11.448;2023-05-17T15:15:50;18.40;99.90
12655;DHT22;6392;44.644;11.448;2023-05-17T15:18:18;18.40;99.90
12655;DHT22;6392;44.644;11.448;2023-05-17T15:20:45;18.40;99.90
12655;DHT22;6392;44.644;11.448;2023-05-17T15:23:13;18.30;99.90
12655;DHT22;6392;44.644;11.448;2023-05-17T15:25:40;18.30;99.90
12655;DHT22;6392;44.644;11.448;2023-05-17T15:28:07;18.30;99.90
12655;DHT22;6392;44.644;11.448;2023-05-17T15:30:34;18.30;99.90
12655;DHT22;6392;44.644;11.448;2023-05-17T15:33:00;18.30;99.90
12655;DHT22;6392;44.644;11.448;2023-05-17T15:35:27;18.30;99.90